createdAt,value
2017-07-01T00:00:26.902Z,1001.76
2017-07-01T00:01:26.938Z,1001.76
2017-07-01T00:02:26.974Z,1001.73
2017-07-01T00:03:27.459Z,1001.76
2017-07-01T00:04:27.038Z,1001.77
2017-07-01T00:05:27.068Z,1001.74
2017-07-01T00:06:27.106Z,1001.72
2017-07-01T00:07:27.182Z,1001.72
2017-07-01T00:08:27.201Z,1001.74
2017-07-01T00:09:27.194Z,1001.71
2017-07-01T00:10:27.238Z,1001.72
2017-07-01T00:11:27.269Z,1001.75
2017-07-01T00:12:27.305Z,1001.73
2017-07-01T00:13:27.420Z,1001.79
2017-07-01T00:14:27.366Z,1001.74
2017-07-01T00:15:27.401Z,1001.78
2017-07-01T00:16:27.441Z,1001.79
2017-07-01T00:17:27.470Z,1001.76
2017-07-01T00:18:27.501Z,1001.78
2017-07-01T00:19:27.542Z,1001.76
2017-07-01T00:20:27.554Z,1001.8
2017-07-01T00:21:27.600Z,1001.78
2017-07-01T00:22:27.631Z,1001.82
2017-07-01T00:23:27.659Z,1001.8
2017-07-01T00:24:27.730Z,1001.77
2017-07-01T00:25:27.719Z,1001.76
2017-07-01T00:26:27.989Z,1001.76
2017-07-01T00:27:28.003Z,1001.74
2017-07-01T00:28:27.837Z,1001.72
2017-07-01T00:29:27.870Z,1001.73
2017-07-01T00:30:27.902Z,1001.72
2017-07-01T00:31:27.937Z,1001.72
2017-07-01T00:32:27.970Z,1001.74
2017-07-01T00:33:28.003Z,1001.71
2017-07-01T00:34:28.023Z,1001.71
2017-07-01T00:35:28.068Z,1001.72
2017-07-01T00:36:28.105Z,1001.67
2017-07-01T00:37:28.134Z,1001.71
2017-07-01T00:38:28.241Z,1001.67
2017-07-01T00:39:28.199Z,1001.71
2017-07-01T00:40:28.296Z,1001.68
2017-07-01T00:41:28.266Z,1001.65
2017-07-01T00:42:28.301Z,1001.64
2017-07-01T00:43:28.331Z,1001.69
2017-07-01T00:44:28.370Z,1001.66
2017-07-01T00:45:28.377Z,1001.65
2017-07-01T00:46:28.430Z,1001.66
2017-07-01T00:47:28.468Z,1001.65
2017-07-01T00:48:28.494Z,1001.62
2017-07-01T00:49:28.531Z,1001.57
2017-07-01T00:50:28.561Z,1001.59
2017-07-01T00:51:28.590Z,1001.57
2017-07-01T00:52:28.615Z,1001.57
2017-07-01T00:53:28.695Z,1001.6
2017-07-01T00:54:28.791Z,1001.58
2017-07-01T00:55:28.742Z,1001.56
2017-07-01T00:56:28.762Z,1001.58
2017-07-01T00:57:29.005Z,1001.58
2017-07-01T00:58:28.812Z,1001.56
2017-07-01T00:59:28.863Z,1001.6
2017-07-01T01:00:28.908Z,1001.54
2017-07-01T01:01:28.951Z,1001.54
2017-07-01T01:02:28.957Z,1001.5
2017-07-01T01:03:29.000Z,1001.51
2017-07-01T01:04:29.025Z,1001.5
2017-07-01T01:05:29.046Z,1001.48
2017-07-01T01:06:29.095Z,1001.51
2017-07-01T01:07:29.220Z,1001.54
2017-07-01T01:08:29.156Z,1001.5
2017-07-01T01:09:29.176Z,1001.53
2017-07-01T01:10:29.227Z,1001.6
2017-07-01T01:11:29.261Z,1001.56
2017-07-01T01:12:29.293Z,1001.58
2017-07-01T01:13:29.400Z,1001.55
2017-07-01T01:14:29.357Z,1001.53
2017-07-01T01:15:29.395Z,1001.57
2017-07-01T01:16:29.424Z,1001.53
2017-07-01T01:17:29.457Z,1001.51
2017-07-01T01:18:29.501Z,1001.5
2017-07-01T01:19:29.527Z,1001.51
2017-07-01T01:20:29.555Z,1001.45
2017-07-01T01:21:29.591Z,1001.41
2017-07-01T01:22:29.622Z,1001.42
2017-07-01T01:23:29.662Z,1001.44
2017-07-01T01:24:29.691Z,1001.41
2017-07-01T01:25:29.724Z,1001.38
2017-07-01T01:26:29.748Z,1001.38
2017-07-01T01:27:29.831Z,1001.42
2017-07-01T01:28:29.869Z,1001.44
2017-07-01T01:29:29.851Z,1001.41
2017-07-01T01:30:29.893Z,1001.48
2017-07-01T01:31:29.905Z,1001.48
2017-07-01T01:32:29.933Z,1001.48
2017-07-01T01:33:29.987Z,1001.49
2017-07-01T01:34:30.005Z,1001.5
2017-07-01T01:35:30.055Z,1001.53
2017-07-01T01:36:30.080Z,1001.49
2017-07-01T01:37:30.105Z,1001.52
2017-07-01T01:38:30.140Z,1001.57
2017-07-01T01:39:30.186Z,1001.5
2017-07-01T01:40:30.206Z,1001.47
2017-07-01T01:41:30.310Z,1001.52
2017-07-01T01:42:30.284Z,1001.53
2017-07-01T01:43:30.313Z,1001.49
2017-07-01T01:44:30.331Z,1001.51
2017-07-01T01:45:30.386Z,1001.47
2017-07-01T01:46:30.416Z,1001.44
2017-07-01T01:47:30.450Z,1001.5
2017-07-01T01:48:30.486Z,1001.52
2017-07-01T01:49:30.507Z,1001.5
2017-07-01T01:50:30.548Z,1001.52
2017-07-01T01:51:30.585Z,1001.53
2017-07-01T01:52:30.615Z,1001.53
2017-07-01T01:53:30.648Z,1001.55
2017-07-01T01:54:30.685Z,1001.57
2017-07-01T01:55:30.712Z,1001.58
2017-07-01T01:56:30.750Z,1001.58
2017-07-01T01:57:30.783Z,1001.6
2017-07-01T01:58:30.812Z,1001.62
2017-07-01T01:59:30.850Z,1001.59
2017-07-01T02:00:30.882Z,1001.59
2017-07-01T02:01:30.909Z,1001.57
2017-07-01T02:02:30.950Z,1001.58
2017-07-01T02:03:30.982Z,1001.57
2017-07-01T02:04:31.011Z,1001.6
2017-07-01T02:05:31.053Z,1001.63
2017-07-01T02:06:31.087Z,1001.62
2017-07-01T02:07:31.104Z,1001.64
2017-07-01T02:08:31.150Z,1001.62
2017-07-01T02:09:31.180Z,1001.62
2017-07-01T02:10:31.213Z,1001.6
2017-07-01T02:11:31.247Z,1001.59
2017-07-01T02:12:31.281Z,1001.59
2017-07-01T02:13:31.314Z,1001.6
2017-07-01T02:14:31.349Z,1001.61
2017-07-01T02:15:31.381Z,1001.55
2017-07-01T02:16:31.484Z,1001.54
2017-07-01T02:17:31.451Z,1001.58
2017-07-01T02:18:31.482Z,1001.59
2017-07-01T02:19:31.517Z,1001.56
2017-07-01T02:20:31.639Z,1001.53
2017-07-01T02:21:31.594Z,1001.56
2017-07-01T02:22:31.619Z,1001.59
2017-07-01T02:23:31.735Z,1001.55
2017-07-01T02:24:31.700Z,1001.58
2017-07-01T02:25:31.715Z,1001.5
2017-07-01T02:26:31.747Z,1001.55
2017-07-01T02:27:31.783Z,1001.53
2017-07-01T02:28:31.818Z,1001.52
2017-07-01T02:29:31.849Z,1001.51
2017-07-01T02:30:31.929Z,1001.53
2017-07-01T02:31:31.918Z,1001.56
2017-07-01T02:32:31.949Z,1001.59
2017-07-01T02:33:32.043Z,1001.58
2017-07-01T02:34:32.016Z,1001.52
2017-07-01T02:35:32.034Z,1001.55
2017-07-01T02:36:32.083Z,1001.55
2017-07-01T02:37:32.118Z,1001.54
2017-07-01T02:38:32.151Z,1001.47
2017-07-01T02:39:32.183Z,1001.52
2017-07-01T02:40:32.385Z,1001.52
2017-07-01T02:41:32.354Z,1001.49
2017-07-01T02:42:32.285Z,1001.5
2017-07-01T02:43:32.330Z,1001.55
2017-07-01T02:44:32.340Z,1001.55
2017-07-01T02:45:32.386Z,1001.55
2017-07-01T02:46:32.420Z,1001.55
2017-07-01T02:47:32.453Z,1001.56
2017-07-01T02:48:32.523Z,1001.55
2017-07-01T02:49:32.520Z,1001.54
2017-07-01T02:50:32.548Z,1001.53
2017-07-01T02:51:32.583Z,1001.55
2017-07-01T02:52:32.619Z,1001.55
2017-07-01T02:53:32.649Z,1001.53
2017-07-01T02:54:32.684Z,1001.51
2017-07-01T02:55:32.721Z,1001.58
2017-07-01T02:56:32.753Z,1001.54
2017-07-01T02:57:32.783Z,1001.56
2017-07-01T02:58:32.819Z,1001.52
2017-07-01T02:59:32.849Z,1001.5
2017-07-01T03:00:32.891Z,1001.5
2017-07-01T03:01:32.919Z,1001.52
2017-07-01T03:02:32.964Z,1001.48
2017-07-01T03:03:32.986Z,1001.45
2017-07-01T03:04:33.029Z,1001.44
2017-07-01T03:05:33.049Z,1001.45
2017-07-01T03:06:33.086Z,1001.47
2017-07-01T03:07:33.104Z,1001.43
2017-07-01T03:08:33.154Z,1001.47
2017-07-01T03:09:33.222Z,1001.46
2017-07-01T03:10:33.228Z,1001.43
2017-07-01T03:11:33.264Z,1001.44
2017-07-01T03:12:33.286Z,1001.46
2017-07-01T03:13:33.343Z,1001.47
2017-07-01T03:14:33.426Z,1001.47
2017-07-01T03:15:33.386Z,1001.48
2017-07-01T03:16:33.420Z,1001.47
2017-07-01T03:17:33.450Z,1001.42
2017-07-01T03:18:33.488Z,1001.39
2017-07-01T03:19:33.529Z,1001.4
2017-07-01T03:20:33.552Z,1001.37
2017-07-01T03:21:33.591Z,1001.39
2017-07-01T03:22:33.720Z,1001.37
2017-07-01T03:23:33.674Z,1001.34
2017-07-01T03:24:33.675Z,1001.39
2017-07-01T03:25:33.721Z,1001.34
2017-07-01T03:26:33.755Z,1001.39
2017-07-01T03:27:33.840Z,1001.37
2017-07-01T03:28:33.824Z,1001.39
2017-07-01T03:29:33.854Z,1001.41
2017-07-01T03:30:33.892Z,1001.43
2017-07-01T03:31:33.924Z,1001.4
2017-07-01T03:32:33.954Z,1001.41
2017-07-01T03:33:33.988Z,1001.42
2017-07-01T03:34:34.025Z,1001.42
2017-07-01T03:35:34.070Z,1001.4
2017-07-01T03:36:34.161Z,1001.38
2017-07-01T03:37:34.226Z,1001.43
2017-07-01T03:38:34.157Z,1001.41
2017-07-01T03:39:34.188Z,1001.4
2017-07-01T03:40:34.224Z,1001.4
2017-07-01T03:41:34.259Z,1001.38
2017-07-01T03:42:34.292Z,1001.36
2017-07-01T03:43:34.326Z,1001.38
2017-07-01T03:44:34.354Z,1001.44
2017-07-01T03:45:34.392Z,1001.38
2017-07-01T03:46:34.425Z,1001.38
2017-07-01T03:47:34.462Z,1001.38
2017-07-01T03:48:34.502Z,1001.38
2017-07-01T03:49:34.528Z,1001.38
2017-07-01T03:50:34.560Z,1001.41
2017-07-01T03:51:34.590Z,1001.41
2017-07-01T03:52:34.628Z,1001.45
2017-07-01T03:53:34.657Z,1001.43
2017-07-01T03:54:34.691Z,1001.42
2017-07-01T03:55:34.728Z,1001.49
2017-07-01T03:56:34.759Z,1001.46
2017-07-01T03:57:34.838Z,1001.43
2017-07-01T03:58:34.911Z,1001.43
2017-07-01T03:59:34.868Z,1001.44
2017-07-01T04:00:34.889Z,1001.4
2017-07-01T04:01:34.924Z,1001.35
2017-07-01T04:02:34.950Z,1001.36
2017-07-01T04:03:34.989Z,1001.36
2017-07-01T04:04:35.045Z,1001.41
2017-07-01T04:05:35.081Z,1001.36
2017-07-01T04:06:35.091Z,1001.39
2017-07-01T04:07:35.127Z,1001.42
2017-07-01T04:08:35.180Z,1001.39
2017-07-01T04:09:35.193Z,1001.37
2017-07-01T04:10:35.241Z,1001.36
2017-07-01T04:11:35.249Z,1001.34
2017-07-01T04:12:35.314Z,1001.36
2017-07-01T04:13:35.324Z,1001.39
2017-07-01T04:14:35.359Z,1001.36
2017-07-01T04:15:35.385Z,1001.32
2017-07-01T04:16:35.427Z,1001.36
2017-07-01T04:17:35.482Z,1001.36
2017-07-01T04:18:35.496Z,1001.4
2017-07-01T04:19:35.519Z,1001.4
2017-07-01T04:20:35.557Z,1001.41
2017-07-01T04:21:35.592Z,1001.42
2017-07-01T04:22:35.624Z,1001.42
2017-07-01T04:23:35.684Z,1001.43
2017-07-01T04:24:35.718Z,1001.46
2017-07-01T04:25:35.728Z,1001.49
2017-07-01T04:26:35.757Z,1001.44
2017-07-01T04:27:35.790Z,1001.46
2017-07-01T04:28:35.926Z,1001.49
2017-07-01T04:29:35.886Z,1001.47
2017-07-01T04:30:35.893Z,1001.5
2017-07-01T04:31:35.953Z,1001.54
2017-07-01T04:32:35.987Z,1001.52
2017-07-01T04:33:36.017Z,1001.5
2017-07-01T04:34:36.023Z,1001.53
2017-07-01T04:35:36.067Z,1001.52
2017-07-01T04:36:36.125Z,1001.52
2017-07-01T04:37:36.130Z,1001.52
2017-07-01T04:38:36.194Z,1001.53
2017-07-01T04:39:36.229Z,1001.55
2017-07-01T04:40:36.234Z,1001.54
2017-07-01T04:41:36.265Z,1001.53
2017-07-01T04:42:36.302Z,1001.51
2017-07-01T04:43:36.329Z,1001.55
2017-07-01T04:44:36.390Z,1001.53
2017-07-01T04:45:36.390Z,1001.5
2017-07-01T04:46:36.433Z,1001.53
2017-07-01T04:47:36.489Z,1001.56
2017-07-01T04:48:36.538Z,1001.55
2017-07-01T04:49:36.528Z,1001.53
2017-07-01T04:50:36.595Z,1001.57
2017-07-01T04:51:36.628Z,1001.6
2017-07-01T04:52:36.629Z,1001.63
2017-07-01T04:53:36.671Z,1001.63
2017-07-01T04:54:36.729Z,1001.65
2017-07-01T04:55:36.729Z,1001.69
2017-07-01T04:56:36.771Z,1001.67
2017-07-01T04:57:36.801Z,1001.63
2017-07-01T04:58:36.845Z,1001.67
2017-07-01T04:59:36.866Z,1001.64
2017-07-01T05:00:36.906Z,1001.65
2017-07-01T05:01:36.938Z,1001.66
2017-07-01T05:02:37.142Z,1001.71
2017-07-01T05:03:37.037Z,1001.68
2017-07-01T05:04:37.032Z,1001.73
2017-07-01T05:05:37.102Z,1001.71
2017-07-01T05:06:37.132Z,1001.75
2017-07-01T05:07:37.166Z,1001.76
2017-07-01T05:08:37.175Z,1001.8
2017-07-01T05:09:37.236Z,1001.78
2017-07-01T05:10:37.272Z,1001.78
2017-07-01T05:11:37.283Z,1001.82
2017-07-01T05:12:37.341Z,1001.77
2017-07-01T05:13:37.373Z,1001.81
2017-07-01T05:14:37.382Z,1001.79
2017-07-01T05:15:37.415Z,1001.77
2017-07-01T05:16:37.450Z,1001.79
2017-07-01T05:17:37.510Z,1001.8
2017-07-01T05:18:37.543Z,1001.8
2017-07-01T05:19:37.555Z,1001.8
2017-07-01T05:20:37.582Z,1001.79
2017-07-01T05:21:37.616Z,1001.79
2017-07-01T05:22:37.681Z,1001.83
2017-07-01T05:23:37.691Z,1001.89
2017-07-01T05:24:38.028Z,1001.83
2017-07-01T05:25:37.753Z,1001.82
2017-07-01T05:26:37.795Z,1001.89
2017-07-01T05:27:37.825Z,1001.84
2017-07-01T05:28:37.884Z,1001.84
2017-07-01T05:29:37.893Z,1001.87
2017-07-01T05:30:37.921Z,1001.91
2017-07-01T05:31:37.984Z,1001.84
2017-07-01T05:32:37.991Z,1001.9
2017-07-01T05:33:38.031Z,1001.89
2017-07-01T05:34:38.065Z,1001.91
2017-07-01T05:35:38.121Z,1001.87
2017-07-01T05:36:38.131Z,1001.95
2017-07-01T05:37:38.191Z,1001.93
2017-07-01T05:38:38.205Z,1001.91
2017-07-01T05:39:38.232Z,1001.96
2017-07-01T05:40:38.264Z,1001.95
2017-07-01T05:41:38.328Z,1002
2017-07-01T05:42:38.337Z,1001.97
2017-07-01T05:43:38.372Z,1002.02
2017-07-01T05:44:38.402Z,1001.99
2017-07-01T05:45:38.437Z,1001.96
2017-07-01T05:46:38.497Z,1001.92
2017-07-01T05:47:38.528Z,1001.95
2017-07-01T05:48:38.541Z,1001.93
2017-07-01T05:49:38.615Z,1001.93
2017-07-01T05:50:38.609Z,1001.9
2017-07-01T05:51:38.644Z,1001.88
2017-07-01T05:52:38.702Z,1001.87
2017-07-01T05:53:38.740Z,1001.9
2017-07-01T05:54:38.740Z,1001.85
2017-07-01T05:55:38.805Z,1001.87
2017-07-01T05:56:38.816Z,1001.85
2017-07-01T05:57:38.847Z,1001.92
2017-07-01T05:58:38.906Z,1001.94
2017-07-01T05:59:38.940Z,1001.88
2017-07-01T06:00:38.950Z,1001.95
2017-07-01T06:01:38.985Z,1001.88
2017-07-01T06:02:39.012Z,1001.83
2017-07-01T06:03:39.048Z,1001.82
2017-07-01T06:04:39.089Z,1001.83
2017-07-01T06:05:39.153Z,1001.79
2017-07-01T06:06:39.157Z,1001.8
2017-07-01T06:07:39.181Z,1001.82
2017-07-01T06:08:39.251Z,1001.87
2017-07-01T06:09:39.260Z,1001.92
2017-07-01T06:10:39.334Z,1001.89
2017-07-01T06:11:39.334Z,1001.98
2017-07-01T06:12:39.359Z,1001.93
2017-07-01T06:13:39.419Z,1002.03
2017-07-01T06:14:39.456Z,1001.99
2017-07-01T06:15:39.491Z,1002.04
2017-07-01T06:16:39.967Z,1002.04
2017-07-01T06:17:39.561Z,1002.01
2017-07-01T06:18:39.568Z,1002.09
2017-07-01T06:19:39.626Z,1002.06
2017-07-01T06:20:39.657Z,1002.08
2017-07-01T06:21:39.671Z,1002.11
2017-07-01T06:22:39.706Z,1002.14
2017-07-01T06:23:39.766Z,1002.1
2017-07-01T06:24:39.772Z,1002.11
2017-07-01T06:25:39.810Z,1002.12
2017-07-01T06:26:39.866Z,1002.15
2017-07-01T06:27:39.900Z,1002.12
2017-07-01T06:28:39.913Z,1002.15
2017-07-01T06:29:39.964Z,1002.17
2017-07-01T06:30:40.005Z,1002.14
2017-07-01T06:31:40.017Z,1002.16
2017-07-01T06:32:40.050Z,1002.12
2017-07-01T06:33:40.087Z,1002.09
2017-07-01T06:34:40.122Z,1002.1
2017-07-01T06:35:40.149Z,1002.11
2017-07-01T06:36:40.184Z,1002.16
2017-07-01T06:37:40.255Z,1002.14
2017-07-01T06:38:40.254Z,1002.2
2017-07-01T06:39:40.323Z,1002.16
2017-07-01T06:40:40.337Z,1002.24
2017-07-01T06:41:40.391Z,1002.19
2017-07-01T06:42:40.402Z,1002.24
2017-07-01T06:43:40.460Z,1002.22
2017-07-01T06:44:40.495Z,1002.23
2017-07-01T06:45:40.530Z,1002.19
2017-07-01T06:46:40.566Z,1002.13
2017-07-01T06:47:40.571Z,1002.18
2017-07-01T06:48:40.641Z,1002.19
2017-07-01T06:49:40.649Z,1002.14
2017-07-01T06:50:40.686Z,1002.08
2017-07-01T06:51:40.726Z,1002.01
2017-07-01T06:52:40.750Z,1002.04
2017-07-01T06:53:40.791Z,1001.98
2017-07-01T06:54:40.829Z,1002.01
2017-07-01T06:55:40.891Z,1001.96
2017-07-01T06:56:40.925Z,1001.94
2017-07-01T06:57:40.961Z,1001.93
2017-07-01T06:58:40.971Z,1001.96
2017-07-01T06:59:41.005Z,1001.95
2017-07-01T07:00:41.047Z,1001.99
2017-07-01T07:01:41.081Z,1001.98
2017-07-01T07:02:41.146Z,1002.01
2017-07-01T07:03:41.149Z,1001.99
2017-07-01T07:04:41.214Z,1002.02
2017-07-01T07:05:41.272Z,1002.08
2017-07-01T07:06:41.265Z,1002.1
2017-07-01T07:07:41.319Z,1002.14
2017-07-01T07:08:41.333Z,1002.08
2017-07-01T07:09:41.367Z,1002.15
2017-07-01T07:10:41.427Z,1002.21
2017-07-01T07:11:41.463Z,1002.16
2017-07-01T07:12:41.478Z,1002.24
2017-07-01T07:13:41.507Z,1002.14
2017-07-01T07:14:41.571Z,1002.18
2017-07-01T07:15:41.580Z,1002.16
2017-07-01T07:16:41.641Z,1002.21
2017-07-01T07:17:41.676Z,1002.21
2017-07-01T07:18:41.685Z,1002.23
2017-07-01T07:19:41.720Z,1002.19
2017-07-01T07:20:41.757Z,1002.18
2017-07-01T07:21:41.794Z,1002.18
2017-07-01T07:22:41.821Z,1002.21
2017-07-01T07:23:41.861Z,1002.21
2017-07-01T07:24:41.929Z,1002.22
2017-07-01T07:25:41.961Z,1002.18
2017-07-01T07:26:41.971Z,1002.18
2017-07-01T07:27:42.035Z,1002.2
2017-07-01T07:28:42.072Z,1002.21
2017-07-01T07:29:42.074Z,1002.28
2017-07-01T07:30:42.115Z,1002.26
2017-07-01T07:31:42.157Z,1002.29
2017-07-01T07:32:42.191Z,1002.29
2017-07-01T07:33:42.247Z,1002.3
2017-07-01T07:34:42.261Z,1002.29
2017-07-01T07:35:42.324Z,1002.26
2017-07-01T07:36:42.331Z,1002.27
2017-07-01T07:37:42.368Z,1002.28
2017-07-01T07:38:42.432Z,1002.27
2017-07-01T07:39:42.470Z,1002.26
2017-07-01T07:40:42.476Z,1002.26
2017-07-01T07:41:42.521Z,1002.25
2017-07-01T07:42:42.588Z,1002.3
2017-07-01T07:43:42.585Z,1002.29
2017-07-01T07:44:42.650Z,1002.37
2017-07-01T07:45:42.680Z,1002.43
2017-07-01T07:46:42.693Z,1002.46
2017-07-01T07:47:42.761Z,1002.38
2017-07-01T07:48:42.761Z,1002.45
2017-07-01T07:49:42.834Z,1002.41
2017-07-01T07:50:42.843Z,1002.48
2017-07-01T07:51:42.902Z,1002.43
2017-07-01T07:52:42.938Z,1002.47
2017-07-01T07:53:42.950Z,1002.48
2017-07-01T07:54:42.984Z,1002.52
2017-07-01T07:55:43.024Z,1002.51
2017-07-01T07:56:43.056Z,1002.46
2017-07-01T07:57:43.123Z,1002.51
2017-07-01T07:58:43.159Z,1002.57
2017-07-01T07:59:43.269Z,1002.55
2017-07-01T08:00:43.203Z,1002.57
2017-07-01T08:01:43.268Z,1002.62
2017-07-01T08:02:43.305Z,1002.7
2017-07-01T08:03:43.340Z,1002.75
2017-07-01T08:04:43.376Z,1002.71
2017-07-01T08:05:43.434Z,1002.69
2017-07-01T08:06:43.456Z,1002.65
2017-07-01T08:07:43.460Z,1002.63
2017-07-01T08:08:43.503Z,1002.6
2017-07-01T08:09:43.568Z,1002.58
2017-07-01T08:10:43.569Z,1002.57
2017-07-01T08:11:43.636Z,1002.6
2017-07-01T08:12:43.678Z,1002.63
2017-07-01T08:13:43.688Z,1002.59
2017-07-01T08:14:43.722Z,1002.6
2017-07-01T08:15:43.766Z,1002.6
2017-07-01T08:16:43.810Z,1002.66
2017-07-01T08:17:43.864Z,1002.86
2017-07-01T08:18:43.879Z,1002.89
2017-07-01T08:19:43.947Z,1002.78
2017-07-01T08:20:43.950Z,1002.71
2017-07-01T08:21:43.993Z,1002.65
2017-07-01T08:22:44.061Z,1002.66
2017-07-01T08:23:44.064Z,1002.6
2017-07-01T08:24:44.134Z,1002.55
2017-07-01T08:25:44.157Z,1002.55
2017-07-01T08:26:44.191Z,1002.48
2017-07-01T08:27:44.227Z,1002.5
2017-07-01T08:28:44.257Z,1002.52
2017-07-01T08:29:44.327Z,1002.56
2017-07-01T08:30:44.368Z,1002.63
2017-07-01T08:31:44.381Z,1002.57
2017-07-01T08:32:44.445Z,1002.58
2017-07-01T08:33:44.458Z,1002.64
2017-07-01T08:34:44.520Z,1002.63
2017-07-01T08:35:44.541Z,1002.67
2017-07-01T08:36:44.572Z,1002.62
2017-07-01T08:37:44.839Z,1002.56
2017-07-01T08:38:44.674Z,1002.54
2017-07-01T08:39:44.689Z,1002.47
2017-07-01T08:40:44.723Z,1002.42
2017-07-01T08:41:44.759Z,1002.65
2017-07-01T08:42:44.828Z,1002.92
2017-07-01T08:43:44.845Z,1002.94
2017-07-01T08:44:44.906Z,1002.51
2017-07-01T08:45:44.944Z,1002.46
2017-07-01T08:46:44.978Z,1002.45
2017-07-01T08:47:45.019Z,1002.59
2017-07-01T08:48:45.061Z,1003.16
2017-07-01T08:49:45.079Z,1003.13
2017-07-01T08:50:45.421Z,1003.01
2017-07-01T08:51:45.161Z,1003.06
2017-07-01T08:52:45.218Z,1003
2017-07-01T08:53:45.229Z,1002.91
2017-07-01T08:54:45.300Z,1002.85
2017-07-01T08:55:45.338Z,1002.72
2017-07-01T08:56:45.350Z,1002.55
2017-07-01T08:57:45.430Z,1002.72
2017-07-01T08:58:45.437Z,1002.74
2017-07-01T08:59:45.471Z,1002.77
2017-07-01T09:00:45.524Z,1002.63
2017-07-01T09:01:45.567Z,1002.61
2017-07-01T09:02:45.597Z,1002.58
2017-07-01T09:03:45.666Z,1002.55
2017-07-01T09:04:45.709Z,1002.55
2017-07-01T09:05:45.747Z,1002.51
2017-07-01T09:06:45.764Z,1002.47
2017-07-01T09:07:45.809Z,1002.53
2017-07-01T09:08:45.869Z,1002.55
2017-07-01T09:09:45.902Z,1002.42
2017-07-01T09:10:45.934Z,1002.49
2017-07-01T09:11:45.965Z,1002.47
2017-07-01T09:12:46.030Z,1002.48
2017-07-01T09:13:46.069Z,1002.45
2017-07-01T09:14:46.108Z,1002.46
2017-07-01T09:15:46.125Z,1002.41
2017-07-01T09:16:46.184Z,1002.43
2017-07-01T09:17:46.215Z,1002.39
2017-07-01T09:18:46.243Z,1002.45
2017-07-01T09:19:46.301Z,1002.44
2017-07-01T09:20:46.332Z,1002.44
2017-07-01T09:21:46.362Z,1002.35
2017-07-01T09:22:46.422Z,1002.38
2017-07-01T09:23:46.474Z,1002.39
2017-07-01T09:24:46.506Z,1002.45
2017-07-01T09:25:46.542Z,1002.43
2017-07-01T09:26:46.558Z,1002.43
2017-07-01T09:27:46.593Z,1002.36
2017-07-01T09:28:46.663Z,1002.34
2017-07-01T09:29:46.669Z,1002.42
2017-07-01T09:30:46.706Z,1002.36
2017-07-01T09:31:46.755Z,1002.26
2017-07-01T09:32:46.792Z,1002.27
2017-07-01T09:33:46.845Z,1002.28
2017-07-01T09:34:46.866Z,1002.27
2017-07-01T09:35:46.937Z,1002.27
2017-07-01T09:36:46.945Z,1002.24
2017-07-01T09:37:47.002Z,1002.2
2017-07-01T09:38:47.015Z,1002.18
2017-07-01T09:39:47.075Z,1002.16
2017-07-01T09:40:47.101Z,1002.21
2017-07-01T09:41:47.149Z,1002.23
2017-07-01T09:42:47.185Z,1002.22
2017-07-01T09:43:47.207Z,1002.22
2017-07-01T09:44:47.247Z,1002.26
2017-07-01T09:45:47.288Z,1002.23
2017-07-01T09:46:47.335Z,1002.25
2017-07-01T09:47:47.387Z,1002.21
2017-07-01T09:48:47.421Z,1002.27
2017-07-01T09:49:47.435Z,1002.26
2017-07-01T09:50:47.466Z,1002.26
2017-07-01T09:51:47.507Z,1002.3
2017-07-01T09:52:47.545Z,1002.34
2017-07-01T09:53:47.573Z,1002.28
2017-07-01T09:54:47.621Z,1002.36
2017-07-01T09:55:47.680Z,1002.39
2017-07-01T09:56:47.686Z,1002.35
2017-07-01T09:57:47.725Z,1002.37
2017-07-01T09:58:47.782Z,1002.35
2017-07-01T09:59:47.801Z,1002.4
2017-07-01T10:00:47.835Z,1002.42
2017-07-01T10:01:47.875Z,1002.41
2017-07-01T10:02:47.965Z,1002.51
2017-07-01T10:03:47.967Z,1002.48
2017-07-01T10:04:47.981Z,1002.54
2017-07-01T10:05:48.043Z,1002.59
2017-07-01T10:06:48.051Z,1002.58
2017-07-01T10:07:48.391Z,1002.63
2017-07-01T10:08:48.153Z,1002.63
2017-07-01T10:09:48.159Z,1002.61
2017-07-01T10:10:48.217Z,1002.66
2017-07-01T10:11:48.234Z,1002.7
2017-07-01T10:12:48.265Z,1002.78
2017-07-01T10:13:48.330Z,1002.88
2017-07-01T10:14:48.824Z,1002.97
2017-07-01T10:15:48.382Z,1003.09
2017-07-01T10:16:48.437Z,1003.12
2017-07-01T10:17:48.452Z,1003.14
2017-07-01T10:18:48.509Z,1003.11
2017-07-01T10:19:48.545Z,1003.16
2017-07-01T10:20:48.551Z,1003.16
2017-07-01T10:21:48.616Z,1003.15
2017-07-01T10:22:48.656Z,1003.16
2017-07-01T10:23:48.661Z,1003.17
2017-07-01T10:24:48.726Z,1003.1
2017-07-01T10:25:48.727Z,1003.07
2017-07-01T10:26:48.759Z,1003.11
2017-07-01T10:27:48.804Z,1003.14
2017-07-01T10:28:48.846Z,1003.11
2017-07-01T10:29:48.903Z,1003.13
2017-07-01T10:30:48.934Z,1003.07
2017-07-01T10:31:48.971Z,1003.02
2017-07-01T10:32:48.981Z,1003.03
2017-07-01T10:33:49.015Z,1003.09
2017-07-01T10:34:49.075Z,1003.05
2017-07-01T10:35:49.088Z,1003.04
2017-07-01T10:36:49.123Z,1003.05
2017-07-01T10:37:49.158Z,1003.04
2017-07-01T10:38:49.220Z,1003.05
2017-07-01T10:39:49.222Z,1003.06
2017-07-01T10:40:49.262Z,1003.05
2017-07-01T10:41:49.322Z,1003.08
2017-07-01T10:42:49.338Z,1003.15
2017-07-01T10:43:49.375Z,1003.08
2017-07-01T10:44:49.406Z,1003.11
2017-07-01T10:45:49.470Z,1003.07
2017-07-01T10:46:49.485Z,1003.08
2017-07-01T10:47:49.516Z,1003.07
2017-07-01T10:48:49.575Z,1002.99
2017-07-01T10:49:49.589Z,1003.06
2017-07-01T10:50:49.622Z,1003.06
2017-07-01T10:51:49.658Z,1003.01
2017-07-01T10:52:49.720Z,1003.05
2017-07-01T10:53:49.735Z,1003.06
2017-07-01T10:54:49.762Z,1003.09
2017-07-01T10:55:49.799Z,1003.13
2017-07-01T10:56:49.841Z,1003.15
2017-07-01T10:57:49.902Z,1003.14
2017-07-01T10:58:49.911Z,1003.11
2017-07-01T10:59:49.979Z,1003.07
2017-07-01T11:00:49.985Z,1003.11
2017-07-01T11:01:50.020Z,1003.19
2017-07-01T11:02:50.055Z,1003.17
2017-07-01T11:03:50.097Z,1003.13
2017-07-01T11:04:50.134Z,1003.11
2017-07-01T11:05:50.162Z,1003.12
2017-07-01T11:06:50.206Z,1003.14
2017-07-01T11:07:50.267Z,1003.11
2017-07-01T11:08:50.301Z,1003.13
2017-07-01T11:09:50.339Z,1003.18
2017-07-01T11:10:50.375Z,1003.07
2017-07-01T11:11:50.390Z,1003.07
2017-07-01T11:12:50.419Z,1003.09
2017-07-01T11:13:50.458Z,1003.12
2017-07-01T11:14:50.524Z,1003.05
2017-07-01T11:15:50.563Z,1003.09
2017-07-01T11:16:50.598Z,1003.02
2017-07-01T11:17:50.617Z,1002.99
2017-07-01T11:18:50.648Z,1002.95
2017-07-01T11:19:50.683Z,1003.01
2017-07-01T11:20:50.717Z,1003.06
2017-07-01T11:21:50.755Z,1003
2017-07-01T11:22:50.793Z,1003.04
2017-07-01T11:23:50.864Z,1002.99
2017-07-01T11:24:50.875Z,1003.01
2017-07-01T11:25:50.933Z,1003.03
2017-07-01T11:26:50.973Z,1003.03
2017-07-01T11:27:51.010Z,1003.05
2017-07-01T11:28:51.025Z,1003.04
2017-07-01T11:29:51.054Z,1002.99
2017-07-01T11:30:51.119Z,1002.96
2017-07-01T11:31:51.155Z,1002.95
2017-07-01T11:32:51.165Z,1002.95
2017-07-01T11:33:51.211Z,1003
2017-07-01T11:34:51.272Z,1003.01
2017-07-01T11:35:51.309Z,1003.05
2017-07-01T11:36:51.347Z,1003.06
2017-07-01T11:37:51.354Z,1003.08
2017-07-01T11:38:51.398Z,1003.11
2017-07-01T11:39:51.460Z,1003.06
2017-07-01T11:40:51.499Z,1003.07
2017-07-01T11:41:51.508Z,1003.02
2017-07-01T11:42:51.572Z,1003.07
2017-07-01T11:43:51.591Z,1003.04
2017-07-01T11:44:51.624Z,1003.05
2017-07-01T11:45:51.653Z,1003.11
2017-07-01T11:46:51.725Z,1003.11
2017-07-01T11:47:51.765Z,1003.08
2017-07-01T11:48:51.799Z,1003.03
2017-07-01T11:49:51.851Z,1003.16
2017-07-01T11:50:51.856Z,1003.12
2017-07-01T11:51:51.891Z,1003.11
2017-07-01T11:52:51.931Z,1003.14
2017-07-01T11:53:51.968Z,1003.1
2017-07-01T11:54:51.999Z,1003.14
2017-07-01T11:55:52.059Z,1003.13
2017-07-01T11:56:52.105Z,1003.15
2017-07-01T11:57:52.122Z,1003.11
2017-07-01T11:58:52.155Z,1003.12
2017-07-01T11:59:52.220Z,1003.11
2017-07-01T12:00:52.262Z,1003.08
2017-07-01T12:01:52.280Z,1003.03
2017-07-01T12:02:52.335Z,1003.03
2017-07-01T12:03:52.375Z,1003.03
2017-07-01T12:04:52.378Z,1003.07
2017-07-01T12:05:52.422Z,1003.07
2017-07-01T12:06:52.460Z,1003.08
2017-07-01T12:07:52.503Z,1002.99
2017-07-01T12:08:52.544Z,1003.01